sensor_id;sensor_type;location;lat;lon;timestamp;P1;durP1;ratioP1;P2;durP2;ratioP2
2522;SDS011;1272;53.332;9.860;2022-08-19T00:00:12;5.57;;;5.17;;
2522;SDS011;1272;53.332;9.860;2022-08-19T00:02:39;6.60;;;6.00;;
2522;SDS011;1272;53.332;9.860;2022-08-19T00:05:06;6.60;;;5.87;;
2522;SDS011;1272;53.332;9.860;2022-08-19T00:07:33;5.63;;;5.20;;
2522;SDS011;1272;53.332;9.860;2022-08-19T00:09:59;6.57;;;5.27;;
2522;SDS011;1272;53.332;9.860;2022-08-19T00:12:24;7.30;;;5.87;;
2522;SDS011;1272;53.332;9.860;2022-08-19T00:14:50;11.03;;;7.50;;
2522;SDS011;1272;53.332;9.860;2022-08-19T00:17:19;6.57;;;5.23;;
2522;SDS011;1272;53.332;9.860;2022-08-19T00:19:45;6.47;;;5.83;;
2522;SDS011;1272;53.332;9.860;2022-08-19T00:22:10;8.53;;;6.83;;
2522;SDS011;1272;53.332;9.860;2022-08-19T00:24:36;6.23;;;5.73;;
2522;SDS011;1272;53.332;9.860;2022-08-19T00:27:03;6.53;;;5.93;;
2522;SDS011;1272;53.332;9.860;2022-08-19T00:29:29;5.57;;;5.13;;
2522;SDS011;1272;53.332;9.860;2022-08-19T00:31:56;5.43;;;4.93;;
2522;SDS011;1272;53.332;9.860;2022-08-19T00:34:23;5.57;;;5.17;;
2522;SDS011;1272;53.332;9.860;2022-08-19T00:36:51;6.00;;;5.40;;
2522;SDS011;1272;53.332;9.860;2022-08-19T00:39:17;7.00;;;5.70;;
2522;SDS011;1272;53.332;9.860;2022-08-19T00:41:43;6.10;;;5.60;;
2522;SDS011;1272;53.332;9.860;2022-08-19T00:44:30;6.37;;;5.83;;
2522;SDS011;1272;53.332;9.860;2022-08-19T00:46:56;6.50;;;5.97;;
2522;SDS011;1272;53.332;9.860;2022-08-19T00:52:07;5.63;;;5.33;;
2522;SDS011;1272;53.332;9.860;2022-08-19T00:54:39;6.20;;;5.60;;
2522;SDS011;1272;53.332;9.860;2022-08-19T00:57:07;6.97;;;6.27;;
2522;SDS011;1272;53.332;9.860;2022-08-19T00:59:37;6.33;;;5.73;;
2522;SDS011;1272;53.332;9.860;2022-08-19T01:02:05;7.50;;;6.87;;
2522;SDS011;1272;53.332;9.860;2022-08-19T01:04:31;6.20;;;5.63;;
2522;SDS011;1272;53.332;9.860;2022-08-19T01:06:57;5.67;;;5.27;;
2522;SDS011;1272;53.332;9.860;2022-08-19T01:09:24;7.20;;;6.50;;
2522;SDS011;1272;53.332;9.860;2022-08-19T01:11:50;6.93;;;6.33;;
2522;SDS011;1272;53.332;9.860;2022-08-19T01:14:18;6.03;;;5.40;;
2522;SDS011;1272;53.332;9.860;2022-08-19T01:16:44;7.20;;;6.50;;
2522;SDS011;1272;53.332;9.860;2022-08-19T01:19:25;7.30;;;6.60;;
2522;SDS011;1272;53.332;9.860;2022-08-19T01:22:02;6.83;;;6.17;;
2522;SDS011;1272;53.332;9.860;2022-08-19T01:24:29;7.13;;;6.60;;
2522;SDS011;1272;53.332;9.860;2022-08-19T01:26:55;6.37;;;5.80;;
2522;SDS011;1272;53.332;9.860;2022-08-19T01:29:21;7.27;;;6.70;;
2522;SDS011;1272;53.332;9.860;2022-08-19T01:31:47;6.67;;;6.07;;
2522;SDS011;1272;53.332;9.860;2022-08-19T01:34:17;6.07;;;5.47;;
2522;SDS011;1272;53.332;9.860;2022-08-19T01:36:44;6.30;;;5.83;;
2522;SDS011;1272;53.332;9.860;2022-08-19T01:39:16;6.97;;;5.67;;
2522;SDS011;1272;53.332;9.860;2022-08-19T01:41:47;6.53;;;5.53;;
2522;SDS011;1272;53.332;9.860;2022-08-19T01:44:14;6.63;;;5.93;;
2522;SDS011;1272;53.332;9.860;2022-08-19T01:46:41;6.83;;;6.20;;
2522;SDS011;1272;53.332;9.860;2022-08-19T01:49:08;6.00;;;5.50;;
2522;SDS011;1272;53.332;9.860;2022-08-19T01:51:34;7.67;;;6.80;;
2522;SDS011;1272;53.332;9.860;2022-08-19T01:54:00;7.20;;;5.57;;
2522;SDS011;1272;53.332;9.860;2022-08-19T01:56:26;6.67;;;6.00;;
2522;SDS011;1272;53.332;9.860;2022-08-19T01:58:56;7.73;;;7.10;;
2522;SDS011;1272;53.332;9.860;2022-08-19T02:01:26;6.90;;;6.30;;
2522;SDS011;1272;53.332;9.860;2022-08-19T02:03:53;7.17;;;6.57;;
2522;SDS011;1272;53.332;9.860;2022-08-19T02:06:19;5.40;;;5.00;;
2522;SDS011;1272;53.332;9.860;2022-08-19T02:08:45;6.73;;;6.13;;
2522;SDS011;1272;53.332;9.860;2022-08-19T02:11:18;9.90;;;6.90;;
2522;SDS011;1272;53.332;9.860;2022-08-19T02:13:51;7.50;;;6.87;;
2522;SDS011;1272;53.332;9.860;2022-08-19T02:16:18;6.27;;;5.70;;
2522;SDS011;1272;53.332;9.860;2022-08-19T02:18:45;8.03;;;7.23;;
2522;SDS011;1272;53.332;9.860;2022-08-19T02:21:13;7.43;;;6.30;;
2522;SDS011;1272;53.332;9.860;2022-08-19T02:23:43;5.83;;;5.33;;
2522;SDS011;1272;53.332;9.860;2022-08-19T02:26:09;7.23;;;5.40;;
2522;SDS011;1272;53.332;9.860;2022-08-19T02:28:35;7.70;;;5.30;;
2522;SDS011;1272;53.332;9.860;2022-08-19T02:31:02;6.80;;;6.20;;
2522;SDS011;1272;53.332;9.860;2022-08-19T02:33:28;6.00;;;5.50;;
2522;SDS011;1272;53.332;9.860;2022-08-19T02:35:54;8.50;;;7.83;;
2522;SDS011;1272;53.332;9.860;2022-08-19T02:38:20;6.97;;;6.27;;
2522;SDS011;1272;53.332;9.860;2022-08-19T02:40:55;5.60;;;5.10;;
2522;SDS011;1272;53.332;9.860;2022-08-19T02:43:23;5.80;;;5.40;;
2522;SDS011;1272;53.332;9.860;2022-08-19T02:45:51;6.30;;;5.70;;
2522;SDS011;1272;53.332;9.860;2022-08-19T02:48:20;6.80;;;5.57;;
2522;SDS011;1272;53.332;9.860;2022-08-19T02:50:48;8.83;;;7.20;;
2522;SDS011;1272;53.332;9.860;2022-08-19T02:53:20;7.13;;;6.53;;
2522;SDS011;1272;53.332;9.860;2022-08-19T02:55:48;7.00;;;6.30;;
2522;SDS011;1272;53.332;9.860;2022-08-19T02:58:14;7.73;;;6.87;;
2522;SDS011;1272;53.332;9.860;2022-08-19T03:00:44;6.80;;;5.97;;
2522;SDS011;1272;53.332;9.860;2022-08-19T03:03:12;7.67;;;7.07;;
2522;SDS011;1272;53.332;9.860;2022-08-19T03:05:39;8.00;;;6.87;;
2522;SDS011;1272;53.332;9.860;2022-08-19T03:08:05;9.90;;;6.73;;
2522;SDS011;1272;53.332;9.860;2022-08-19T03:10:32;8.30;;;7.10;;
2522;SDS011;1272;53.332;9.860;2022-08-19T03:12:58;10.33;;;8.20;;
2522;SDS011;1272;53.332;9.860;2022-08-19T03:15:23;9.90;;;8.10;;
2522;SDS011;1272;53.332;9.860;2022-08-19T03:17:49;9.90;;;8.50;;
2522;SDS011;1272;53.332;9.860;2022-08-19T03:20:15;10.70;;;9.30;;
2522;SDS011;1272;53.332;9.860;2022-08-19T03:22:41;13.40;;;10.40;;
2522;SDS011;1272;53.332;9.860;2022-08-19T03:25:06;9.30;;;8.20;;
2522;SDS011;1272;53.332;9.860;2022-08-19T03:27:32;9.80;;;7.60;;
2522;SDS011;1272;53.332;9.860;2022-08-19T03:29:58;10.40;;;8.00;;
2522;SDS011;1272;53.332;9.860;2022-08-19T03:32:24;11.67;;;9.33;;
2522;SDS011;1272;53.332;9.860;2022-08-19T03:34:50;16.13;;;9.03;;
2522;SDS011;1272;53.332;9.860;2022-08-19T03:37:17;12.70;;;8.50;;
2522;SDS011;1272;53.332;9.860;2022-08-19T03:39:42;13.53;;;9.83;;
2522;SDS011;1272;53.332;9.860;2022-08-19T03:42:08;11.23;;;10.03;;
2522;SDS011;1272;53.332;9.860;2022-08-19T03:44:34;11.33;;;9.43;;
2522;SDS011;1272;53.332;9.860;2022-08-19T03:47:03;14.37;;;9.60;;
2522;SDS011;1272;53.332;9.860;2022-08-19T03:49:29;20.57;;;11.67;;
2522;SDS011;1272;53.332;9.860;2022-08-19T03:51:57;11.80;;;10.10;;
2522;SDS011;1272;53.332;9.860;2022-08-19T03:54:25;16.77;;;10.10;;
2522;SDS011;1272;53.332;9.860;2022-08-19T03:56:53;16.70;;;10.73;;
2522;SDS011;1272;53.332;9.860;2022-08-19T03:59:29;13.60;;;10.07;;
2522;SDS011;1272;53.332;9.860;2022-08-19T04:01:58;16.60;;;11.80;;
2522;SDS011;1272;53.332;9.860;2022-08-19T04:04:25;13.47;;;8.43;;
2522;SDS011;1272;53.332;9.860;2022-08-19T04:06:52;18.20;;;10.70;;
2522;SDS011;1272;53.332;9.860;2022-08-19T04:09:18;15.17;;;9.60;;
2522;SDS011;1272;53.332;9.860;2022-08-19T04:11:46;12.87;;;10.50;;
2522;SDS011;1272;53.332;9.860;2022-08-19T04:14:15;12.60;;;10.60;;
2522;SDS011;1272;53.332;9.860;2022-08-19T04:16:43;12.47;;;9.80;;
2522;SDS011;1272;53.332;9.860;2022-08-19T04:19:10;17.87;;;10.60;;
2522;SDS011;1272;53.332;9.860;2022-08-19T04:21:37;18.37;;;10.10;;
2522;SDS011;1272;53.332;9.860;2022-08-19T04:24:03;16.80;;;10.53;;
2522;SDS011;1272;53.332;9.860;2022-08-19T04:26:33;13.83;;;10.00;;
2522;SDS011;1272;53.332;9.860;2022-08-19T04:29:01;18.60;;;10.93;;
2522;SDS011;1272;53.332;9.860;2022-08-19T04:31:30;11.23;;;9.60;;
2522;SDS011;1272;53.332;9.860;2022-08-19T04:34:01;15.40;;;10.10;;
2522;SDS011;1272;53.332;9.860;2022-08-19T04:36:30;19.83;;;10.87;;
2522;SDS011;1272;53.332;9.860;2022-08-19T04:38:59;14.50;;;9.60;;
2522;SDS011;1272;53.332;9.860;2022-08-19T04:41:28;17.20;;;10.80;;
2522;SDS011;1272;53.332;9.860;2022-08-19T04:44:13;15.00;;;10.90;;
2522;SDS011;1272;53.332;9.860;2022-08-19T04:46:39;17.83;;;11.37;;
2522;SDS011;1272;53.332;9.860;2022-08-19T04:49:06;15.73;;;7.77;;
2522;SDS011;1272;53.332;9.860;2022-08-19T04:51:33;14.67;;;9.73;;
2522;SDS011;1272;53.332;9.860;2022-08-19T04:54:00;21.90;;;11.10;;
2522;SDS011;1272;53.332;9.860;2022-08-19T04:56:27;23.43;;;10.90;;
2522;SDS011;1272;53.332;9.860;2022-08-19T04:58:54;10.60;;;8.80;;
2522;SDS011;1272;53.332;9.860;2022-08-19T05:01:22;17.13;;;10.50;;
2522;SDS011;1272;53.332;9.860;2022-08-19T05:03:50;12.17;;;9.30;;
2522;SDS011;1272;53.332;9.860;2022-08-19T05:06:16;11.13;;;8.83;;
2522;SDS011;1272;53.332;9.860;2022-08-19T05:08:44;13.43;;;8.73;;
2522;SDS011;1272;53.332;9.860;2022-08-19T05:13:37;12.07;;;10.57;;
2522;SDS011;1272;53.332;9.860;2022-08-19T05:16:03;12.23;;;9.37;;
2522;SDS011;1272;53.332;9.860;2022-08-19T05:18:29;14.40;;;10.77;;
2522;SDS011;1272;53.332;9.860;2022-08-19T05:21:14;11.53;;;9.30;;
2522;SDS011;1272;53.332;9.860;2022-08-19T05:24:14;12.43;;;8.63;;
2522;SDS011;1272;53.332;9.860;2022-08-19T05:26:41;11.47;;;9.60;;
2522;SDS011;1272;53.332;9.860;2022-08-19T05:29:10;20.47;;;10.30;;
2522;SDS011;1272;53.332;9.860;2022-08-19T05:31:36;14.07;;;11.53;;
2522;SDS011;1272;53.332;9.860;2022-08-19T05:34:03;15.07;;;12.53;;
2522;SDS011;1272;53.332;9.860;2022-08-19T05:36:33;17.47;;;11.10;;
2522;SDS011;1272;53.332;9.860;2022-08-19T05:39:01;16.00;;;12.10;;
2522;SDS011;1272;53.332;9.860;2022-08-19T05:41:28;11.27;;;10.07;;
2522;SDS011;1272;53.332;9.860;2022-08-19T05:44:00;11.23;;;10.13;;
2522;SDS011;1272;53.332;9.860;2022-08-19T05:46:31;15.33;;;11.20;;
2522;SDS011;1272;53.332;9.860;2022-08-19T05:48:56;11.97;;;9.13;;
2522;SDS011;1272;53.332;9.860;2022-08-19T05:51:23;11.73;;;10.17;;
2522;SDS011;1272;53.332;9.860;2022-08-19T05:53:49;18.13;;;10.10;;
2522;SDS011;1272;53.332;9.860;2022-08-19T05:56:15;14.40;;;10.23;;
2522;SDS011;1272;53.332;9.860;2022-08-19T05:58:42;16.70;;;10.83;;
2522;SDS011;1272;53.332;9.860;2022-08-19T06:01:14;14.87;;;10.47;;
2522;SDS011;1272;53.332;9.860;2022-08-19T06:03:41;17.70;;;11.60;;
2522;SDS011;1272;53.332;9.860;2022-08-19T06:06:08;14.30;;;10.03;;
2522;SDS011;1272;53.332;9.860;2022-08-19T06:08:35;11.43;;;9.60;;
2522;SDS011;1272;53.332;9.860;2022-08-19T06:11:13;13.70;;;8.97;;
2522;SDS011;1272;53.332;9.860;2022-08-19T06:13:47;10.97;;;9.87;;
2522;SDS011;1272;53.332;9.860;2022-08-19T06:16:16;11.33;;;9.00;;
2522;SDS011;1272;53.332;9.860;2022-08-19T06:18:47;11.80;;;8.50;;
2522;SDS011;1272;53.332;9.860;2022-08-19T06:21:17;12.87;;;9.13;;
2522;SDS011;1272;53.332;9.860;2022-08-19T06:23:47;16.20;;;11.83;;
2522;SDS011;1272;53.332;9.860;2022-08-19T06:26:14;14.60;;;8.50;;
2522;SDS011;1272;53.332;9.860;2022-08-19T06:28:40;12.40;;;11.13;;
2522;SDS011;1272;53.332;9.860;2022-08-19T06:31:15;17.83;;;11.13;;
2522;SDS011;1272;53.332;9.860;2022-08-19T06:33:44;11.07;;;9.13;;
2522;SDS011;1272;53.332;9.860;2022-08-19T06:36:21;9.83;;;8.50;;
2522;SDS011;1272;53.332;9.860;2022-08-19T06:38:52;14.10;;;9.90;;
2522;SDS011;1272;53.332;9.860;2022-08-19T06:41:18;9.37;;;8.27;;
2522;SDS011;1272;53.332;9.860;2022-08-19T06:43:44;11.03;;;8.87;;
2522;SDS011;1272;53.332;9.860;2022-08-19T06:46:13;14.70;;;11.00;;
2522;SDS011;1272;53.332;9.860;2022-08-19T06:48:40;15.57;;;10.27;;
2522;SDS011;1272;53.332;9.860;2022-08-19T06:51:06;10.20;;;8.93;;
2522;SDS011;1272;53.332;9.860;2022-08-19T06:53:32;18.73;;;13.03;;
2522;SDS011;1272;53.332;9.860;2022-08-19T06:55:58;13.73;;;10.50;;
2522;SDS011;1272;53.332;9.860;2022-08-19T06:58:27;13.97;;;11.33;;
2522;SDS011;1272;53.332;9.860;2022-08-19T07:00:58;13.40;;;10.73;;
2522;SDS011;1272;53.332;9.860;2022-08-19T07:03:27;12.30;;;11.00;;
2522;SDS011;1272;53.332;9.860;2022-08-19T07:05:58;18.50;;;10.63;;
2522;SDS011;1272;53.332;9.860;2022-08-19T07:08:35;13.87;;;10.63;;
2522;SDS011;1272;53.332;9.860;2022-08-19T07:11:06;14.73;;;11.20;;
2522;SDS011;1272;53.332;9.860;2022-08-19T07:13:34;11.50;;;10.17;;
2522;SDS011;1272;53.332;9.860;2022-08-19T07:16:06;13.13;;;10.13;;
2522;SDS011;1272;53.332;9.860;2022-08-19T07:18:34;15.80;;;11.87;;
2522;SDS011;1272;53.332;9.860;2022-08-19T07:23:31;10.10;;;9.20;;
2522;SDS011;1272;53.332;9.860;2022-08-19T07:25:57;12.90;;;11.17;;
2522;SDS011;1272;53.332;9.860;2022-08-19T07:28:23;12.10;;;11.00;;
2522;SDS011;1272;53.332;9.860;2022-08-19T07:30:49;18.23;;;11.17;;
2522;SDS011;1272;53.332;9.860;2022-08-19T07:33:15;10.80;;;9.37;;
2522;SDS011;1272;53.332;9.860;2022-08-19T07:35:42;15.93;;;11.90;;
2522;SDS011;1272;53.332;9.860;2022-08-19T07:38:08;12.20;;;10.47;;
2522;SDS011;1272;53.332;9.860;2022-08-19T07:40:35;14.10;;;10.93;;
2522;SDS011;1272;53.332;9.860;2022-08-19T07:43:01;13.77;;;10.13;;
2522;SDS011;1272;53.332;9.860;2022-08-19T07:45:27;11.67;;;10.47;;
2522;SDS011;1272;53.332;9.860;2022-08-19T07:47:53;13.53;;;10.40;;
2522;SDS011;1272;53.332;9.860;2022-08-19T07:50:20;14.77;;;10.33;;
2522;SDS011;1272;53.332;9.860;2022-08-19T07:52:46;11.50;;;8.40;;
2522;SDS011;1272;53.332;9.860;2022-08-19T07:55:14;12.30;;;11.00;;
2522;SDS011;1272;53.332;9.860;2022-08-19T07:57:42;11.63;;;10.43;;
2522;SDS011;1272;53.332;9.860;2022-08-19T08:00:08;10.67;;;9.27;;
2522;SDS011;1272;53.332;9.860;2022-08-19T08:02:34;12.40;;;11.10;;
2522;SDS011;1272;53.332;9.860;2022-08-19T08:04:59;16.10;;;9.13;;
2522;SDS011;1272;53.332;9.860;2022-08-19T08:07:43;9.80;;;8.80;;
2522;SDS011;1272;53.332;9.860;2022-08-19T08:10:28;15.40;;;10.80;;
2522;SDS011;1272;53.332;9.860;2022-08-19T08:12:53;13.93;;;10.37;;
2522;SDS011;1272;53.332;9.860;2022-08-19T08:15:20;17.27;;;11.73;;
2522;SDS011;1272;53.332;9.860;2022-08-19T08:17:46;18.83;;;13.60;;
2522;SDS011;1272;53.332;9.860;2022-08-19T08:20:13;15.20;;;12.20;;
2522;SDS011;1272;53.332;9.860;2022-08-19T08:22:42;16.57;;;12.00;;
2522;SDS011;1272;53.332;9.860;2022-08-19T08:25:27;14.60;;;11.50;;
2522;SDS011;1272;53.332;9.860;2022-08-19T08:27:54;19.33;;;13.67;;
2522;SDS011;1272;53.332;9.860;2022-08-19T08:30:22;16.83;;;13.10;;
2522;SDS011;1272;53.332;9.860;2022-08-19T08:32:49;16.20;;;12.90;;
2522;SDS011;1272;53.332;9.860;2022-08-19T08:35:16;11.60;;;10.40;;
2522;SDS011;1272;53.332;9.860;2022-08-19T08:37:46;17.47;;;13.37;;
2522;SDS011;1272;53.332;9.860;2022-08-19T08:48:49;22.50;;;15.37;;
2522;SDS011;1272;53.332;9.860;2022-08-19T08:51:20;21.27;;;15.03;;
2522;SDS011;1272;53.332;9.860;2022-08-19T08:53:58;22.10;;;14.60;;
2522;SDS011;1272;53.332;9.860;2022-08-19T08:56:25;20.23;;;15.47;;
2522;SDS011;1272;53.332;9.860;2022-08-19T08:58:54;18.70;;;15.50;;
2522;SDS011;1272;53.332;9.860;2022-08-19T09:01:21;19.50;;;15.23;;
2522;SDS011;1272;53.332;9.860;2022-08-19T09:03:47;14.03;;;11.40;;
2522;SDS011;1272;53.332;9.860;2022-08-19T09:06:23;16.20;;;11.93;;
2522;SDS011;1272;53.332;9.860;2022-08-19T09:11:55;19.20;;;14.43;;
2522;SDS011;1272;53.332;9.860;2022-08-19T09:17:22;19.40;;;14.10;;
2522;SDS011;1272;53.332;9.860;2022-08-19T09:19:56;12.57;;;10.50;;
2522;SDS011;1272;53.332;9.860;2022-08-19T09:22:34;15.53;;;13.90;;
2522;SDS011;1272;53.332;9.860;2022-08-19T09:25:04;19.40;;;14.30;;
2522;SDS011;1272;53.332;9.860;2022-08-19T09:27:33;16.20;;;13.00;;
2522;SDS011;1272;53.332;9.860;2022-08-19T09:30:01;19.90;;;13.33;;
2522;SDS011;1272;53.332;9.860;2022-08-19T09:32:29;23.00;;;14.77;;
2522;SDS011;1272;53.332;9.860;2022-08-19T09:34:55;20.77;;;15.20;;
2522;SDS011;1272;53.332;9.860;2022-08-19T09:37:23;21.30;;;14.43;;
2522;SDS011;1272;53.332;9.860;2022-08-19T09:39:49;16.30;;;12.93;;
2522;SDS011;1272;53.332;9.860;2022-08-19T09:42:16;14.47;;;12.90;;
2522;SDS011;1272;53.332;9.860;2022-08-19T09:44:42;13.80;;;11.60;;
2522;SDS011;1272;53.332;9.860;2022-08-19T09:47:09;15.00;;;13.50;;
2522;SDS011;1272;53.332;9.860;2022-08-19T09:49:37;17.53;;;13.37;;
2522;SDS011;1272;53.332;9.860;2022-08-19T09:52:04;18.30;;;13.53;;
2522;SDS011;1272;53.332;9.860;2022-08-19T09:54:31;14.73;;;11.93;;
2522;SDS011;1272;53.332;9.860;2022-08-19T09:56:58;11.70;;;9.20;;
2522;SDS011;1272;53.332;9.860;2022-08-19T09:59:25;14.87;;;12.70;;
2522;SDS011;1272;53.332;9.860;2022-08-19T10:01:51;14.60;;;11.33;;
2522;SDS011;1272;53.332;9.860;2022-08-19T10:04:17;11.00;;;9.93;;
2522;SDS011;1272;53.332;9.860;2022-08-19T10:06:46;10.50;;;9.40;;
2522;SDS011;1272;53.332;9.860;2022-08-19T10:09:14;11.13;;;9.97;;
2522;SDS011;1272;53.332;9.860;2022-08-19T10:11:42;16.93;;;12.37;;
2522;SDS011;1272;53.332;9.860;2022-08-19T10:14:13;12.60;;;11.40;;
2522;SDS011;1272;53.332;9.860;2022-08-19T10:16:39;14.23;;;10.83;;
2522;SDS011;1272;53.332;9.860;2022-08-19T10:19:06;11.87;;;10.17;;
2522;SDS011;1272;53.332;9.860;2022-08-19T10:21:32;9.67;;;8.77;;
2522;SDS011;1272;53.332;9.860;2022-08-19T10:24:00;14.60;;;11.27;;
2522;SDS011;1272;53.332;9.860;2022-08-19T10:26:30;12.73;;;10.53;;
2522;SDS011;1272;53.332;9.860;2022-08-19T10:28:58;14.57;;;10.40;;
2522;SDS011;1272;53.332;9.860;2022-08-19T10:31:26;13.40;;;11.10;;
2522;SDS011;1272;53.332;9.860;2022-08-19T10:33:55;12.03;;;10.83;;
2522;SDS011;1272;53.332;9.860;2022-08-19T10:36:28;16.00;;;12.60;;
2522;SDS011;1272;53.332;9.860;2022-08-19T10:39:03;13.07;;;11.53;;
2522;SDS011;1272;53.332;9.860;2022-08-19T10:41:32;11.17;;;9.97;;
2522;SDS011;1272;53.332;9.860;2022-08-19T10:44:00;13.37;;;11.20;;
2522;SDS011;1272;53.332;9.860;2022-08-19T10:46:29;11.67;;;10.50;;
2522;SDS011;1272;53.332;9.860;2022-08-19T10:48:57;12.93;;;11.40;;
2522;SDS011;1272;53.332;9.860;2022-08-19T10:51:25;13.43;;;12.00;;
2522;SDS011;1272;53.332;9.860;2022-08-19T10:54:09;10.70;;;9.80;;
2522;SDS011;1272;53.332;9.860;2022-08-19T10:56:35;14.30;;;12.90;;
2522;SDS011;1272;53.332;9.860;2022-08-19T10:59:17;16.20;;;12.70;;
2522;SDS011;1272;53.332;9.860;2022-08-19T11:01:43;13.80;;;11.30;;
2522;SDS011;1272;53.332;9.860;2022-08-19T11:04:10;15.60;;;12.57;;
2522;SDS011;1272;53.332;9.860;2022-08-19T11:06:39;17.50;;;15.13;;
2522;SDS011;1272;53.332;9.860;2022-08-19T11:09:08;12.27;;;11.00;;
2522;SDS011;1272;53.332;9.860;2022-08-19T11:11:36;14.07;;;12.63;;
2522;SDS011;1272;53.332;9.860;2022-08-19T11:14:06;13.13;;;11.10;;
2522;SDS011;1272;53.332;9.860;2022-08-19T11:16:37;12.40;;;10.53;;
2522;SDS011;1272;53.332;9.860;2022-08-19T11:19:04;15.60;;;12.70;;
2522;SDS011;1272;53.332;9.860;2022-08-19T11:21:33;14.57;;;12.50;;
2522;SDS011;1272;53.332;9.860;2022-08-19T11:24:03;12.43;;;11.00;;
2522;SDS011;1272;53.332;9.860;2022-08-19T11:26:32;15.43;;;12.83;;
2522;SDS011;1272;53.332;9.860;2022-08-19T11:28:59;14.70;;;12.03;;
2522;SDS011;1272;53.332;9.860;2022-08-19T11:31:27;14.73;;;13.33;;
2522;SDS011;1272;53.332;9.860;2022-08-19T11:33:58;14.03;;;12.53;;
2522;SDS011;1272;53.332;9.860;2022-08-19T11:36:26;13.50;;;12.20;;
2522;SDS011;1272;53.332;9.860;2022-08-19T11:38:53;14.43;;;12.10;;
2522;SDS011;1272;53.332;9.860;2022-08-19T11:41:19;10.50;;;9.43;;
2522;SDS011;1272;53.332;9.860;2022-08-19T11:43:47;9.13;;;8.10;;
2522;SDS011;1272;53.332;9.860;2022-08-19T11:46:14;9.83;;;8.93;;
2522;SDS011;1272;53.332;9.860;2022-08-19T11:48:40;14.70;;;11.47;;
2522;SDS011;1272;53.332;9.860;2022-08-19T11:51:09;13.30;;;11.90;;
2522;SDS011;1272;53.332;9.860;2022-08-19T11:53:37;12.30;;;9.57;;
2522;SDS011;1272;53.332;9.860;2022-08-19T11:56:05;12.03;;;9.77;;
2522;SDS011;1272;53.332;9.860;2022-08-19T11:58:31;10.80;;;9.80;;
2522;SDS011;1272;53.332;9.860;2022-08-19T12:00:57;12.10;;;10.57;;
2522;SDS011;1272;53.332;9.860;2022-08-19T12:03:23;17.63;;;12.33;;
2522;SDS011;1272;53.332;9.860;2022-08-19T12:05:50;10.17;;;9.27;;
2522;SDS011;1272;53.332;9.860;2022-08-19T12:08:16;10.43;;;9.30;;
2522;SDS011;1272;53.332;9.860;2022-08-19T12:10:43;8.87;;;8.07;;
2522;SDS011;1272;53.332;9.860;2022-08-19T12:13:10;10.30;;;9.40;;
2522;SDS011;1272;53.332;9.860;2022-08-19T12:15:39;12.50;;;11.30;;
2522;SDS011;1272;53.332;9.860;2022-08-19T12:18:06;12.13;;;10.90;;
2522;SDS011;1272;53.332;9.860;2022-08-19T12:20:37;11.87;;;10.67;;
2522;SDS011;1272;53.332;9.860;2022-08-19T12:23:04;10.03;;;9.03;;
2522;SDS011;1272;53.332;9.860;2022-08-19T12:25:32;11.30;;;10.30;;
2522;SDS011;1272;53.332;9.860;2022-08-19T12:27:58;10.93;;;9.97;;
2522;SDS011;1272;53.332;9.860;2022-08-19T12:30:24;11.43;;;9.90;;
2522;SDS011;1272;53.332;9.860;2022-08-19T12:32:50;13.83;;;12.43;;
2522;SDS011;1272;53.332;9.860;2022-08-19T12:35:19;10.53;;;9.60;;
2522;SDS011;1272;53.332;9.860;2022-08-19T12:37:45;15.17;;;13.60;;
2522;SDS011;1272;53.332;9.860;2022-08-19T12:40:13;12.27;;;10.07;;
2522;SDS011;1272;53.332;9.860;2022-08-19T12:42:40;11.80;;;10.70;;
2522;SDS011;1272;53.332;9.860;2022-08-19T12:45:07;11.73;;;10.63;;
2522;SDS011;1272;53.332;9.860;2022-08-19T12:47:38;10.67;;;9.67;;
2522;SDS011;1272;53.332;9.860;2022-08-19T12:50:05;10.97;;;10.07;;
2522;SDS011;1272;53.332;9.860;2022-08-19T12:52:33;12.37;;;11.17;;
2522;SDS011;1272;53.332;9.860;2022-08-19T12:55:02;9.90;;;9.07;;
2522;SDS011;1272;53.332;9.860;2022-08-19T12:57:30;12.67;;;10.17;;
2522;SDS011;1272;53.332;9.860;2022-08-19T13:00:11;12.33;;;10.07;;
2522;SDS011;1272;53.332;9.860;2022-08-19T13:02:40;11.97;;;10.80;;
2522;SDS011;1272;53.332;9.860;2022-08-19T13:05:10;10.40;;;9.10;;
2522;SDS011;1272;53.332;9.860;2022-08-19T13:07:38;9.07;;;8.13;;
2522;SDS011;1272;53.332;9.860;2022-08-19T13:10:05;11.47;;;10.17;;
2522;SDS011;1272;53.332;9.860;2022-08-19T13:12:32;9.90;;;9.10;;
2522;SDS011;1272;53.332;9.860;2022-08-19T13:14:58;10.80;;;9.90;;
2522;SDS011;1272;53.332;9.860;2022-08-19T13:17:23;9.40;;;8.60;;
2522;SDS011;1272;53.332;9.860;2022-08-19T13:19:49;10.63;;;9.67;;
2522;SDS011;1272;53.332;9.860;2022-08-19T13:22:15;10.10;;;9.10;;
2522;SDS011;1272;53.332;9.860;2022-08-19T13:24:41;9.33;;;8.63;;
2522;SDS011;1272;53.332;9.860;2022-08-19T13:27:08;10.57;;;8.80;;
2522;SDS011;1272;53.332;9.860;2022-08-19T13:29:34;9.30;;;8.50;;
2522;SDS011;1272;53.332;9.860;2022-08-19T13:32:18;9.40;;;8.60;;
2522;SDS011;1272;53.332;9.860;2022-08-19T13:35:02;9.50;;;8.60;;
2522;SDS011;1272;53.332;9.860;2022-08-19T13:37:29;9.33;;;8.50;;
2522;SDS011;1272;53.332;9.860;2022-08-19T13:40:07;8.80;;;7.90;;
2522;SDS011;1272;53.332;9.860;2022-08-19T13:42:42;9.67;;;8.77;;
2522;SDS011;1272;53.332;9.860;2022-08-19T13:45:09;10.20;;;9.30;;
2522;SDS011;1272;53.332;9.860;2022-08-19T13:47:35;8.10;;;7.40;;
2522;SDS011;1272;53.332;9.860;2022-08-19T13:50:07;8.60;;;7.90;;
2522;SDS011;1272;53.332;9.860;2022-08-19T13:52:35;8.20;;;7.60;;
2522;SDS011;1272;53.332;9.860;2022-08-19T13:55:01;8.87;;;8.10;;
2522;SDS011;1272;53.332;9.860;2022-08-19T13:57:29;9.03;;;8.23;;
2522;SDS011;1272;53.332;9.860;2022-08-19T13:59:55;12.60;;;10.63;;
2522;SDS011;1272;53.332;9.860;2022-08-19T14:02:22;15.53;;;9.57;;
2522;SDS011;1272;53.332;9.860;2022-08-19T14:04:48;9.47;;;8.60;;
2522;SDS011;1272;53.332;9.860;2022-08-19T14:07:14;8.73;;;8.00;;
2522;SDS011;1272;53.332;9.860;2022-08-19T14:09:40;8.70;;;8.10;;
2522;SDS011;1272;53.332;9.860;2022-08-19T14:12:05;9.23;;;8.37;;
2522;SDS011;1272;53.332;9.860;2022-08-19T14:14:31;9.67;;;8.77;;
2522;SDS011;1272;53.332;9.860;2022-08-19T14:17:00;9.10;;;8.33;;
2522;SDS011;1272;53.332;9.860;2022-08-19T14:19:26;6.80;;;6.30;;
2522;SDS011;1272;53.332;9.860;2022-08-19T14:21:52;9.00;;;8.30;;
2522;SDS011;1272;53.332;9.860;2022-08-19T14:24:17;7.17;;;6.67;;
2522;SDS011;1272;53.332;9.860;2022-08-19T14:26:43;8.60;;;7.90;;
2522;SDS011;1272;53.332;9.860;2022-08-19T14:29:09;8.50;;;7.70;;
2522;SDS011;1272;53.332;9.860;2022-08-19T14:31:35;7.90;;;7.20;;
2522;SDS011;1272;53.332;9.860;2022-08-19T14:34:00;6.93;;;6.43;;
2522;SDS011;1272;53.332;9.860;2022-08-19T14:36:26;8.20;;;7.50;;
2522;SDS011;1272;53.332;9.860;2022-08-19T14:38:52;8.43;;;7.67;;
2522;SDS011;1272;53.332;9.860;2022-08-19T14:41:19;8.13;;;7.13;;
2522;SDS011;1272;53.332;9.860;2022-08-19T14:43:48;8.40;;;7.70;;
2522;SDS011;1272;53.332;9.860;2022-08-19T14:46:18;8.80;;;8.00;;
2522;SDS011;1272;53.332;9.860;2022-08-19T14:48:47;8.90;;;7.97;;
2522;SDS011;1272;53.332;9.860;2022-08-19T14:51:14;8.27;;;7.63;;
2522;SDS011;1272;53.332;9.860;2022-08-19T14:53:40;8.13;;;7.57;;
2522;SDS011;1272;53.332;9.860;2022-08-19T14:56:07;8.70;;;7.90;;
2522;SDS011;1272;53.332;9.860;2022-08-19T14:58:39;8.10;;;7.30;;
2522;SDS011;1272;53.332;9.860;2022-08-19T15:01:06;7.43;;;6.90;;
2522;SDS011;1272;53.332;9.860;2022-08-19T15:03:32;9.73;;;8.73;;
2522;SDS011;1272;53.332;9.860;2022-08-19T15:05:59;9.60;;;8.90;;
2522;SDS011;1272;53.332;9.860;2022-08-19T15:08:26;8.93;;;8.27;;
2522;SDS011;1272;53.332;9.860;2022-08-19T15:10:53;8.63;;;8.00;;
2522;SDS011;1272;53.332;9.860;2022-08-19T15:13:20;7.40;;;6.63;;
2522;SDS011;1272;53.332;9.860;2022-08-19T15:15:46;8.50;;;7.90;;
2522;SDS011;1272;53.332;9.860;2022-08-19T15:18:13;8.17;;;7.50;;
2522;SDS011;1272;53.332;9.860;2022-08-19T15:20:39;8.87;;;7.73;;
2522;SDS011;1272;53.332;9.860;2022-08-19T15:23:04;7.17;;;6.63;;
2522;SDS011;1272;53.332;9.860;2022-08-19T15:25:30;7.53;;;6.57;;
2522;SDS011;1272;53.332;9.860;2022-08-19T15:27:57;7.80;;;7.27;;